createdAt,value
2022-10-17T00:00:12.137Z,3.50
2022-10-17T00:10:16.442Z,2.67
2022-10-17T00:20:19.839Z,3.05
2022-10-17T00:30:24.268Z,4.78
2022-10-17T00:40:27.625Z,2.83
2022-10-17T00:50:32.535Z,3.10
2022-10-17T01:00:37.154Z,3.47
2022-10-17T01:10:54.827Z,2.80
2022-10-17T01:21:28.173Z,3.58
2022-10-17T01:31:38.157Z,2.97
2022-10-17T01:41:47.142Z,2.17
2022-10-17T01:51:56.010Z,2.63
2022-10-17T02:02:00.111Z,2.58
2022-10-17T02:12:25.566Z,2.92
2022-10-17T02:22:38.335Z,3.35
2022-10-17T02:32:50.441Z,2.88
2022-10-17T02:42:56.295Z,2.58
2022-10-17T02:53:06.524Z,2.65
2022-10-17T03:03:23.444Z,3.75
2022-10-17T03:13:27.776Z,3.63
2022-10-17T03:23:30.569Z,3.78
2022-10-17T03:33:34.870Z,3.42
2022-10-17T03:43:37.765Z,4.10
2022-10-17T03:53:42.518Z,3.22
2022-10-17T04:03:49.187Z,3.55
2022-10-17T04:13:56.028Z,5.10
2022-10-17T04:24:00.631Z,4.40
2022-10-17T04:34:05.332Z,3.92
2022-10-17T04:44:08.735Z,3.78
2022-10-17T04:54:13.249Z,4.93
2022-10-17T05:04:16.508Z,5.38
2022-10-17T05:14:22.121Z,4.28
2022-10-17T05:24:25.581Z,3.42
2022-10-17T05:34:31.076Z,3.92
2022-10-17T05:44:34.215Z,4.18
2022-10-17T05:54:42.474Z,4.95
2022-10-17T06:04:50.597Z,8.10
2022-10-17T06:15:01.150Z,4.82
2022-10-17T06:25:04.751Z,5.53
2022-10-17T06:35:34.582Z,4.82
2022-10-17T06:45:41.889Z,4.55
2022-10-17T06:55:52.637Z,4.85
2022-10-17T07:05:57.002Z,4.70
2022-10-17T07:16:04.735Z,4.63
2022-10-17T07:26:16.750Z,4.15
2022-10-17T07:36:31.693Z,4.25
2022-10-17T07:46:42.102Z,2.72
2022-10-17T07:56:52.126Z,3.60
2022-10-17T08:07:11.568Z,4.60
2022-10-17T08:17:21.951Z,4.18
2022-10-17T08:27:25.749Z,3.80
2022-10-17T08:37:31.991Z,3.78
2022-10-17T08:47:39.792Z,3.92
2022-10-17T08:57:44.724Z,3.92
2022-10-17T09:07:53.895Z,2.75
2022-10-17T09:18:03.513Z,3.45
2022-10-17T09:28:14.596Z,4.00
2022-10-17T09:48:27.258Z,3.88
2022-10-17T09:58:44.165Z,3.90
2022-10-17T10:08:52.320Z,3.38
2022-10-17T10:18:57.090Z,3.05
2022-10-17T10:29:03.394Z,3.13
2022-10-17T10:39:16.760Z,3.05
2022-10-17T10:49:30.467Z,3.30
2022-10-17T10:59:40.084Z,2.83
2022-10-17T11:09:51.972Z,2.95
2022-10-17T11:20:08.022Z,3.72
2022-10-17T11:30:14.606Z,2.78
2022-10-17T11:40:27.382Z,3.30
2022-10-17T12:01:13.183Z,2.67
2022-10-17T12:11:29.103Z,2.38
2022-10-17T12:21:55.145Z,3.13
2022-10-17T12:32:12.239Z,2.80
2022-10-17T12:42:49.009Z,3.20
2022-10-17T12:53:06.772Z,4.35
2022-10-17T13:03:17.373Z,3.08
2022-10-17T13:13:25.749Z,3.07
2022-10-17T13:23:34.034Z,3.22
2022-10-17T13:33:39.504Z,2.95
2022-10-17T13:43:44.426Z,3.17
2022-10-17T13:53:47.235Z,3.13
2022-10-17T14:04:02.149Z,2.58
2022-10-17T14:14:20.136Z,3.83
2022-10-17T14:24:31.878Z,3.38
2022-10-17T14:34:36.884Z,3.85
2022-10-17T14:44:41.514Z,3.38
2022-10-17T14:54:52.357Z,4.13
2022-10-17T15:04:57.624Z,3.13
2022-10-17T15:15:00.582Z,4.68
2022-10-17T15:25:05.799Z,3.55
2022-10-17T15:35:09.815Z,4.53
2022-10-17T15:45:16.128Z,4.05
2022-10-17T15:55:19.597Z,4.38
2022-10-17T16:05:26.301Z,7.65
2022-10-17T16:15:32.466Z,3.15
2022-10-17T16:25:37.022Z,5.00
2022-10-17T16:35:40.440Z,3.67
2022-10-17T16:45:45.809Z,5.38
2022-10-17T16:56:00.085Z,5.88
2022-10-17T17:06:13.286Z,5.68
2022-10-17T17:16:19.096Z,4.82
2022-10-17T17:26:23.746Z,5.38
2022-10-17T17:36:28.484Z,4.55
2022-10-17T17:46:33.270Z,4.55
2022-10-17T17:56:36.738Z,6.18
2022-10-17T18:06:41.755Z,4.25
2022-10-17T18:16:45.002Z,5.72
2022-10-17T18:26:50.269Z,5.65
2022-10-17T18:36:54.103Z,5.53
2022-10-17T18:47:03.025Z,6.35
2022-10-17T18:57:07.791Z,8.73
2022-10-17T19:07:12.188Z,5.93
2022-10-17T19:17:15.242Z,6.07
2022-10-17T19:27:20.770Z,4.85
2022-10-17T19:37:23.657Z,5.97
2022-10-17T19:47:28.140Z,5.55
2022-10-17T19:57:31.010Z,5.60
2022-10-17T20:07:35.322Z,4.72
2022-10-17T20:17:38.363Z,4.88
2022-10-17T20:27:42.750Z,5.35
2022-10-17T20:37:45.626Z,6.10
2022-10-17T20:47:54.219Z,5.95
2022-10-17T20:57:57.685Z,6.35
2022-10-17T21:08:02.919Z,5.75
2022-10-17T21:18:05.873Z,4.60
2022-10-17T21:28:10.282Z,5.70
2022-10-17T21:38:13.155Z,6.85
2022-10-17T21:48:17.677Z,5.60
2022-10-17T21:58:20.656Z,6.72
2022-10-17T22:08:26.076Z,6.47
2022-10-17T22:18:29.661Z,5.03
2022-10-17T22:28:34.906Z,6.13
2022-10-17T22:38:38.178Z,6.15
2022-10-17T22:48:42.750Z,7.40
2022-10-17T22:58:46.330Z,6.80
2022-10-17T23:08:50.823Z,6.28
2022-10-17T23:18:53.688Z,6.72
2022-10-17T23:28:58.109Z,6.32
2022-10-17T23:39:01.244Z,5.90
2022-10-17T23:49:06.083Z,6.07
2022-10-17T23:59:09.646Z,5.45
